Time;durP1;ratioP1;P1;durP2;ratioP2;P2;SDS_P1;SDS_P2;PMS_P1;PMS_P2;Temp;Humidity;BMP_temperature;BMP_pressure;BME280_temperature;BME280_humidity;BME280_pressure;Samples;Min_cycle;Max_cycle;Signal;HPM_P1;HPM_P2
2021/12/17 00:07:00;;;;;;;;;59.75;42.25;;;;;8.97;73.15;103467.53;5033917;28;45319;-61
2021/12/17 00:09:25;;;;;;;;;56.75;43.75;;;;;8.96;73.25;103474.56;5030799;28;45133;-61
2021/12/17 00:11:50;;;;;;;;;63.50;47.00;;;;;8.93;73.31;103467.59;5032429;28;45328;-61
2021/12/17 00:14:25;;;;;;;;;59.25;42.75;;;;;8.91;73.34;103463.22;5031623;28;45308;-60
2021/12/17 00:16:51;;;;;;;;;54.75;43.75;;;;;8.91;73.55;103465.84;5030038;28;45331;-61
2021/12/17 00:49:03;;;;;;;;;57.50;44.25;;;;;8.80;73.69;103462.44;5008792;28;45576;-61
2021/12/17 00:54:22;;;;;;;;;61.00;48.00;;;;;8.81;73.55;103451.03;5020483;28;45398;-61
2021/12/17 00:56:51;;;;;;;;;28.50;19.50;;;;;8.80;73.34;103452.78;5020289;28;45394;-61
2021/12/17 00:59:17;;;;;;;;;61.75;44.00;;;;;8.79;73.73;103451.06;5020127;28;45426;-61
2021/12/17 01:01:44;;;;;;;;;56.00;46.50;;;;;8.78;73.64;103451.94;5019456;28;45411;-60
2021/12/17 01:04:10;;;;;;;;;52.00;43.00;;;;;8.77;73.58;103446.66;5020369;28;45261;-61
2021/12/17 01:06:36;;;;;;;;;53.75;42.75;;;;;8.74;73.64;103444.94;5020242;28;45544;-61
2021/12/17 01:09:03;;;;;;;;;50.75;41.25;;;;;8.74;73.97;103450.22;5020358;28;45270;-61
2021/12/17 01:11:29;;;;;;;;;58.00;43.00;;;;;8.73;73.99;103439.72;5019995;28;45293;-61
2021/12/17 01:13:55;;;;;;;;;57.25;46.00;;;;;8.70;73.97;103445.00;5007260;28;45667;-61
2021/12/17 01:16:21;;;;;;;;;61.25;43.25;;;;;8.68;73.56;103442.38;4999794;28;45923;-60
2021/12/17 01:19:05;;;;;;;;;59.50;44.00;;;;;8.67;73.72;103438.88;5001937;28;45344;-61
2021/12/17 01:24:07;;;;;;;;;53.75;41.75;;;;;8.62;73.35;103442.44;5016410;28;45355;-61
2021/12/17 01:42:48;;;;;;;;;53.00;42.50;;;;;8.49;73.68;103436.41;5023782;28;45287;-60
2021/12/17 01:45:13;;;;;;;;;60.25;46.00;;;;;8.47;73.45;103435.53;5023453;28;45190;-60
2021/12/17 01:47:39;;;;;;;;;57.75;41.75;;;;;8.45;73.32;103442.53;5023283;28;45514;-61
2021/12/17 02:00:59;;;;;;;;;49.00;34.75;;;;;8.35;73.50;103439.09;5013792;28;45474;-60
2021/12/17 02:03:25;;;;;;;;;51.00;41.25;;;;;8.35;73.46;103433.84;5023049;28;45403;-61
2021/12/17 02:05:51;;;;;;;;;62.25;44.00;;;;;8.35;73.62;103436.47;5022995;28;45714;-61
2021/12/17 02:08:16;;;;;;;;;57.00;45.75;;;;;8.35;73.55;103444.38;5022857;28;46092;-61
2021/12/17 02:32:28;;;;;;;;;58.00;43.00;;;;;8.25;73.50;103434.78;5022172;28;45312;-59
2021/12/17 02:37:31;;;;;;;;;45.25;39.75;;;;;8.25;73.94;103433.91;5022444;28;45320;-59
2021/12/17 02:45:32;;;;;;;;;54.25;41.00;;;;;8.22;73.80;103429.56;5021587;28;45346;-59
2021/12/17 02:48:06;;;;;;;;;56.25;43.25;;;;;8.21;73.79;103426.91;5022240;28;45501;-60
2021/12/17 02:50:35;;;;;;;;;53.25;42.00;;;;;8.22;73.67;103426.06;5020909;28;45542;-59
2021/12/17 02:53:07;;;;;;;;;52.50;40.25;;;;;8.21;73.79;103419.03;5020976;28;45341;-60
2021/12/17 02:55:34;;;;;;;;;43.75;38.75;;;;;8.19;73.56;103424.31;5022447;28;45264;-59
2021/12/17 02:57:59;;;;;;;;;57.50;41.25;;;;;8.18;73.60;103419.06;5021985;28;45517;-60
2021/12/17 03:00:25;;;;;;;;;54.50;40.00;;;;;8.17;73.69;103419.97;5021772;28;45328;-60
2021/12/17 03:02:54;;;;;;;;;49.25;39.75;;;;;8.15;73.87;103422.59;5021901;28;45363;-59
2021/12/17 03:05:20;;;;;;;;;58.00;41.25;;;;;8.15;73.87;103424.34;5022443;28;45277;-59
2021/12/17 03:07:48;;;;;;;;;40.25;37.00;;;;;8.10;73.64;103417.34;5022078;28;45447;-59
2021/12/17 03:10:15;;;;;;;;;54.50;40.75;;;;;8.10;73.76;103416.50;5021895;28;45434;-60
2021/12/17 03:12:47;;;;;;;;;55.25;42.00;;;;;8.07;73.95;103416.53;5021716;28;45233;-60
2021/12/17 03:15:34;;;;;;;;;55.75;41.75;;;;;8.06;73.84;103415.66;5017202;28;45372;-60
2021/12/17 03:26:11;;;;;;;;;51.50;40.00;;;;;8.03;73.95;103410.41;5022069;28;45273;-60
2021/12/17 03:28:39;;;;;;;;;51.25;43.00;;;;;8.05;74.00;103402.50;5021627;28;45312;-60
2021/12/17 03:31:06;;;;;;;;;57.00;46.50;;;;;8.03;73.85;103405.16;5021543;28;45228;-60
2021/12/17 03:33:32;;;;;;;;;54.75;45.00;;;;;8.02;73.94;103402.53;5021508;28;45380;-60
2021/12/17 03:35:58;;;;;;;;;45.75;39.50;;;;;8.00;73.81;103404.31;5022041;28;45446;-60
2021/12/17 03:38:24;;;;;;;;;47.00;37.50;;;;;7.99;73.93;103416.56;5021682;28;45364;-60
2021/12/17 03:40:58;;;;;;;;;55.25;40.50;;;;;7.99;74.08;103410.44;5021972;28;45975;-59
2021/12/17 03:43:30;;;;;;;;;48.75;39.00;;;;;7.99;73.84;103407.81;5021688;28;45314;-60
2021/12/17 03:45:56;;;;;;;;;48.75;36.50;;;;;8.01;73.92;103411.31;5021720;28;45470;-60
2021/12/17 03:48:22;;;;;;;;;51.50;39.00;;;;;8.05;74.16;103420.88;5021415;28;45506;-60
2021/12/17 03:50:47;;;;;;;;;22.25;11.50;;;;;8.05;74.13;103420.88;5021488;28;46023;-60
2021/12/17 03:53:13;;;;;;;;;48.25;41.00;;;;;8.09;73.95;103420.88;5020767;28;45406;-59
2021/12/17 03:55:38;;;;;;;;;59.75;43.00;;;;;8.16;73.93;103415.59;5021565;28;45142;-59
2021/12/17 03:58:04;;;;;;;;;56.00;40.00;;;;;8.21;74.07;103419.03;5021327;28;45253;-59
2021/12/17 04:00:31;;;;;;;;;53.25;43.25;;;;;8.28;73.90;103418.13;5021119;28;46324;-59
2021/12/17 04:02:57;;;;;;;;;54.00;41.50;;;;;8.37;73.71;103426.88;5021234;28;45472;-59
2021/12/17 04:05:23;;;;;;;;;53.75;40.25;;;;;8.44;73.35;103424.16;5021359;28;45377;-60
2021/12/17 04:07:49;;;;;;;;;52.50;40.25;;;;;8.47;73.33;103422.41;5021050;28;45401;-60
2021/12/17 04:10:17;;;;;;;;;54.75;43.50;;;;;8.51;73.35;103431.13;5021201;28;45355;-60
2021/12/17 04:13:04;;;;;;;;;63.50;43.25;;;;;8.55;73.33;103424.97;5021051;28;45253;-60
2021/12/17 04:15:37;;;;;;;;;50.75;42.00;;;;;8.57;73.12;103416.19;5021174;28;45332;-60
2021/12/17 04:18:07;;;;;;;;;57.00;42.75;;;;;8.62;72.92;103416.16;5021072;28;45364;-60
2021/12/17 04:20:34;;;;;;;;;56.25;44.25;;;;;8.64;73.21;103415.25;5020385;28;45498;-60
2021/12/17 04:23:00;;;;;;;;;44.75;39.00;;;;;8.67;72.88;103423.09;5021065;28;45359;-60
2021/12/17 04:25:25;;;;;;;;;57.25;42.25;;;;;8.71;73.00;103409.97;5020972;28;45565;-57
2021/12/17 04:27:51;;;;;;;;;55.25;40.00;;;;;8.74;73.03;103409.91;5021031;28;45314;-60
2021/12/17 04:30:17;;;;;;;;;54.00;43.50;;;;;8.75;73.01;103407.28;5020676;28;45438;-60
2021/12/17 04:32:43;;;;;;;;;61.00;42.00;;;;;8.78;73.06;103401.13;5020969;28;45313;-60
2021/12/17 04:35:08;;;;;;;;;50.50;39.00;;;;;8.78;73.09;103404.63;5021061;28;45473;-60
2021/12/17 04:37:34;;;;;;;;;54.25;42.00;;;;;8.81;72.93;103394.09;5021141;28;45246;-60
2021/12/17 04:40:00;;;;;;;;;50.00;40.50;;;;;8.83;72.82;103394.06;5020576;28;45348;-60
2021/12/17 04:42:39;;;;;;;;;52.75;39.50;;;;;8.88;73.03;103397.53;5020906;28;45324;-60
2021/12/17 04:45:05;;;;;;;;;49.00;40.00;;;;;8.91;73.08;103397.50;5020811;28;45205;-60
2021/12/17 04:58:27;;;;;;;;;46.00;38.00;;;;;9.06;72.78;103393.84;5020480;28;45312;-60
2021/12/17 05:00:53;;;;;;;;;44.25;36.50;;;;;9.09;72.65;103392.06;5020147;28;46057;-60
2021/12/17 05:03:18;;;;;;;;;47.00;37.00;;;;;9.14;73.09;103398.13;5020277;28;45326;-60
2021/12/17 05:05:44;;;;;;;;;41.50;35.75;;;;;9.16;72.71;103393.75;5020617;28;45297;-60
2021/12/17 05:08:14;;;;;;;;;51.75;39.50;;;;;9.20;73.03;103402.47;5022968;28;45552;-60
2021/12/17 05:18:47;;;;;;;;;50.50;37.25;;;;;9.33;72.33;103398.81;5023730;28;45389;-60
2021/12/17 05:21:14;;;;;;;;;40.75;36.25;;;;;9.39;72.92;103400.47;5023666;28;46024;-61
2021/12/17 05:23:40;;;;;;;;;49.75;36.75;;;;;9.41;72.48;103401.34;5023841;28;45443;-60
2021/12/17 05:26:09;;;;;;;;;47.75;36.25;;;;;9.42;72.91;103403.09;5023887;28;45236;-60
2021/12/17 05:28:35;;;;;;;;;45.25;39.00;;;;;9.44;72.52;103402.19;5024047;28;45455;-59
2021/12/17 05:31:01;;;;;;;;;50.25;35.00;;;;;9.49;72.73;103407.41;5023253;28;45374;-60
2021/12/17 05:33:27;;;;;;;;;56.75;39.50;;;;;9.52;72.31;103405.59;5023541;28;45411;-60
2021/12/17 05:35:54;;;;;;;;;47.00;36.25;;;;;9.54;72.42;103409.94;5023595;28;45614;-60
2021/12/17 05:38:22;;;;;;;;;135.33;71.33;;;;;9.55;72.78;103403.78;5023689;28;45412;-60
2021/12/17 05:40:48;;;;;;;;;59.00;41.50;;;;;9.55;72.75;103395.91;5023479;28;46468;-60
2021/12/17 05:43:15;;;;;;;;;58.00;43.25;;;;;9.57;72.49;103389.75;5023456;28;45300;-60
2021/12/17 05:48:25;;;;;;;;;40.00;37.00;;;;;9.57;72.46;103400.28;5023312;28;45514;-60
2021/12/17 05:50:55;;;;;;;;;45.00;35.00;;;;;9.60;72.26;103392.34;5023167;28;45415;-60
2021/12/17 05:53:22;;;;;;;;;44.75;32.75;;;;;9.61;72.66;103387.94;5022702;28;45394;-59
2021/12/17 05:55:47;;;;;;;;;40.25;35.00;;;;;9.63;72.78;103402.81;5023531;28;45420;-60
2021/12/17 05:58:14;;;;;;;;;42.75;32.75;;;;;9.65;71.98;103403.69;5023502;28;45280;-60
2021/12/17 06:00:41;;;;;;;;;44.25;33.75;;;;;9.67;72.63;103398.41;5022853;28;45674;-60
2021/12/17 06:03:07;;;;;;;;;42.75;37.75;;;;;9.68;72.19;103398.38;5022823;28;45682;-59
2021/12/17 06:05:34;;;;;;;;;34.75;30.00;;;;;9.67;71.98;103398.41;5023313;28;45377;-59
2021/12/17 06:07:59;;;;;;;;;46.50;36.00;;;;;9.67;72.18;103399.25;5023388;28;45313;-59
2021/12/17 06:10:25;;;;;;;;;46.75;38.75;;;;;9.67;72.41;103396.63;5022768;28;46385;-60
2021/12/17 06:12:51;;;;;;;;;37.75;33.25;;;;;9.66;72.59;103394.91;5023029;28;45312;-59
2021/12/17 06:15:19;;;;;;;;;31.25;31.25;;;;;9.68;72.13;103401.00;5022877;28;45166;-60
2021/12/17 06:17:45;;;;;;;;;45.25;35.25;;;;;9.71;72.37;103402.72;5022725;28;45376;-59
2021/12/17 06:20:14;;;;;;;;;31.50;23.50;;;;;9.70;72.00;103404.47;5021379;28;45596;-59
2021/12/17 06:22:39;;;;;;;;;44.25;35.00;;;;;9.71;71.93;103406.22;5022693;28;45382;-59
2021/12/17 06:25:07;;;;;;;;;39.25;30.00;;;;;9.73;72.33;103398.31;5022998;28;45432;-59
2021/12/17 06:27:33;;;;;;;;;46.00;37.75;;;;;9.72;72.03;103405.34;5022938;28;45583;-59
2021/12/17 06:29:59;;;;;;;;;43.75;35.50;;;;;9.71;72.69;103411.47;5022234;28;46034;-59
2021/12/17 06:32:25;;;;;;;;;46.75;35.50;;;;;9.71;72.22;103405.34;5022875;28;45229;-59
2021/12/17 06:34:52;;;;;;;;;41.00;30.00;;;;;9.71;72.19;103406.22;5022718;28;45368;-59
2021/12/17 06:37:18;;;;;;;;;43.00;35.50;;;;;9.71;72.34;103397.44;5017532;28;45496;-59
2021/12/17 06:39:45;;;;;;;;;37.00;32.50;;;;;9.70;72.75;103400.97;5002634;28;45458;-59
2021/12/17 06:42:11;;;;;;;;;39.75;35.50;;;;;9.65;72.51;103401.06;5028834;28;45628;-59
2021/12/17 06:44:38;;;;;;;;;52.75;37.25;;;;;9.64;72.90;103399.31;5028676;28;45308;-59
2021/12/17 07:09:02;;;;;;;;;41.75;38.00;;;;;9.66;73.03;103415.09;5021954;28;45400;-57
2021/12/17 07:10:49;;;;;;;;;43.75;35.50;;;;;9.65;73.14;103413.34;5020938;28;45308;-53
2021/12/17 07:21:30;;;;;;;;;49.25;35.25;;;;;9.68;73.16;103413.28;5021586;28;45474;-56
2021/12/17 07:32:35;;;;;;;;;42.25;33.00;;;;;9.71;73.32;103418.50;4979562;28;45590;-56
2021/12/17 07:39:51;;;;;;;;;39.25;35.75;;;;;9.76;73.29;103438.63;5021730;28;45296;-57
2021/12/17 07:42:17;;;;;;;;;23.75;17.75;;;;;9.77;73.40;103431.59;5021422;28;45245;-55
2021/12/17 07:44:42;;;;;;;;;42.00;33.00;;;;;9.79;72.96;103424.53;5021390;28;45256;-55
2021/12/17 07:47:08;;;;;;;;;37.50;34.00;;;;;9.81;73.05;103429.81;5021530;28;45443;-55
2021/12/17 07:49:33;;;;;;;;;40.75;33.25;;;;;9.84;73.41;103430.63;5021146;28;45613;-54
2021/12/17 07:51:59;;;;;;;;;45.25;32.00;;;;;9.87;73.63;103427.06;5020925;28;45571;-57
2021/12/17 07:54:24;;;;;;;;;42.00;35.75;;;;;9.90;73.15;103434.94;5020936;28;45296;-55
2021/12/17 07:56:50;;;;;;;;;42.75;35.25;;;;;9.92;72.98;103422.63;5021410;28;45314;-56
2021/12/17 07:59:15;;;;;;;;;38.50;36.00;;;;;9.90;72.90;103429.69;5021301;28;45373;-57
2021/12/17 08:01:41;;;;;;;;;42.75;36.00;;;;;9.90;73.09;103425.28;5020845;28;46314;-54
2021/12/17 08:04:08;;;;;;;;;38.50;35.00;;;;;9.91;73.21;103429.66;5021233;28;45261;-55
2021/12/17 08:06:35;;;;;;;;;47.25;34.75;;;;;9.94;73.12;103428.75;5021495;28;45395;-56
2021/12/17 08:09:03;;;;;;;;;39.75;33.75;;;;;9.93;73.00;103432.25;5021636;28;45553;-56
2021/12/17 08:11:31;;;;;;;;;44.00;34.75;;;;;9.94;72.94;103424.34;5020919;28;46606;-56
2021/12/17 08:13:57;;;;;;;;;33.75;31.00;;;;;9.93;73.78;103424.38;5036202;28;45345;-57
2021/12/17 08:31:48;;;;;;;;;37.75;34.25;;;;;10.00;73.81;103433.94;5020437;28;46099;-55
2021/12/17 08:34:14;;;;;;;;;47.75;33.75;;;;;10.04;73.39;103446.19;5020910;28;45142;-54
2021/12/17 08:36:39;;;;;;;;;38.00;30.50;;;;;10.07;73.92;103444.34;5020959;28;45232;-57
2021/12/17 08:39:05;;;;;;;;;37.25;29.50;;;;;10.10;73.69;103440.78;5020958;28;45653;-54
2021/12/17 08:41:31;;;;;;;;;41.00;32.50;;;;;10.15;73.74;103438.13;5019705;28;45950;-56
2021/12/17 08:43:56;;;;;;;;;39.75;33.50;;;;;10.18;73.38;103438.06;5019880;28;45229;-55
2021/12/17 08:46:22;;;;;;;;;38.75;31.00;;;;;10.22;73.59;103439.78;5020043;28;45340;-54
2021/12/17 08:48:47;;;;;;;;;37.50;32.00;;;;;10.23;73.68;103433.63;5019747;28;45710;-56
2021/12/17 08:51:13;;;;;;;;;44.75;32.75;;;;;10.27;73.48;103435.34;5020270;28;46248;-56
2021/12/17 08:53:38;;;;;;;;;39.00;31.00;;;;;10.28;73.22;103426.53;5019510;28;45376;-54
2021/12/17 08:56:04;;;;;;;;;34.50;28.25;;;;;10.29;73.51;103430.91;5020539;28;45408;-56
2021/12/17 08:58:30;;;;;;;;;34.50;28.75;;;;;10.29;72.89;103417.75;5020168;28;45674;-56
2021/12/17 09:00:57;;;;;;;;;35.00;29.25;;;;;10.32;73.54;103429.09;5020240;28;46532;-55
2021/12/17 09:03:23;;;;;;;;;38.25;28.75;;;;;10.37;73.60;103433.44;5020294;28;45240;-55
2021/12/17 09:05:49;;;;;;;;;38.25;28.75;;;;;10.40;73.06;103439.50;5020741;28;45492;-56
2021/12/17 09:08:15;;;;;;;;;32.50;24.75;;;;;10.39;73.23;103450.97;5020503;28;45182;-56
2021/12/17 09:10:43;;;;;;;;;36.00;27.00;;;;;10.37;73.02;103436.06;5020445;28;45974;-56
2021/12/17 09:13:09;;;;;;;;;33.75;29.00;;;;;10.39;72.99;103445.69;5019990;28;45336;-54
2021/12/17 09:15:35;;;;;;;;;46.50;29.75;;;;;10.41;72.95;103449.16;5017947;28;45297;-56
2021/12/17 09:18:01;;;;;;;;;43.25;34.75;;;;;10.43;73.32;103447.41;5013726;28;45320;-54
2021/12/17 09:20:26;;;;;;;;;41.00;32.50;;;;;10.49;73.11;103451.69;5013281;28;46006;-55
2021/12/17 09:22:52;;;;;;;;;37.00;26.50;;;;;10.48;72.77;103460.47;5019771;28;45352;-55
2021/12/17 09:25:18;;;;;;;;;38.25;30.00;;;;;10.47;72.83;103448.19;5020306;28;45388;-53
2021/12/17 09:27:44;;;;;;;;;35.00;30.00;;;;;10.49;73.16;103454.31;5020360;28;45639;-54
2021/12/17 09:30:13;;;;;;;;;43.25;32.75;;;;;10.54;73.28;103457.75;5019899;28;45301;-54
2021/12/17 09:32:39;;;;;;;;;38.75;28.25;;;;;10.57;73.13;103455.94;5019970;28;45372;-54
2021/12/17 09:35:07;;;;;;;;;39.75;33.00;;;;;10.58;72.75;103465.56;5019798;28;45474;-55
2021/12/17 09:37:32;;;;;;;;;30.50;25.75;;;;;10.57;72.66;103466.47;5020215;28;45460;-54
2021/12/17 09:39:58;;;;;;;;;39.50;28.50;;;;;10.56;72.65;103463.88;5019859;28;45213;-53
2021/12/17 09:42:24;;;;;;;;;28.75;24.25;;;;;10.57;72.64;103471.75;5020133;28;45561;-51
2021/12/17 09:44:50;;;;;;;;;30.75;25.00;;;;;10.58;72.53;103472.63;5019585;28;45289;-53
2021/12/17 09:47:16;;;;;;;;;32.75;28.25;;;;;10.55;72.38;103470.91;5018803;28;45528;-56
2021/12/17 09:49:42;;;;;;;;;36.25;30.00;;;;;10.56;72.54;103482.31;5019532;28;45647;-55
2021/12/17 09:52:08;;;;;;;;;35.75;32.75;;;;;10.56;72.66;103482.31;5019868;28;45479;-55
2021/12/17 09:54:34;;;;;;;;;33.50;29.25;;;;;10.56;72.45;103484.94;5022213;28;45430;-56
2021/12/17 09:57:00;;;;;;;;;41.00;32.75;;;;;10.55;72.86;103481.44;5023621;28;45383;-56
2021/12/17 09:59:25;;;;;;;;;38.50;29.50;;;;;10.57;72.91;103482.28;5022891;28;46503;-56
2021/12/17 10:01:51;;;;;;;;;38.75;32.25;;;;;10.60;72.81;103484.03;5023031;28;45414;-56
2021/12/17 10:04:31;;;;;;;;;34.00;30.00;;;;;10.61;72.70;103496.31;5023254;28;45304;-56
2021/12/17 10:07:21;;;;;;;;;42.00;35.25;;;;;10.58;72.49;103477.88;5023357;28;45466;-56
2021/12/17 10:09:52;;;;;;;;;34.75;30.75;;;;;10.59;72.51;103477.03;5011892;28;46224;-57
2021/12/17 10:12:26;;;;;;;;;54.00;36.75;;;;;10.61;72.51;103478.72;5022873;28;45323;-55
2021/12/17 10:15:29;;;;;;;;;38.25;32.00;;;;;10.62;72.72;103475.19;5022655;28;45264;-54
2021/12/17 10:18:01;;;;;;;;;37.25;34.75;;;;;10.65;72.90;103481.31;5009320;28;45262;-55
2021/12/17 10:20:30;;;;;;;;;38.00;31.75;;;;;10.70;72.33;103476.84;5022481;28;45264;-55
2021/12/17 10:23:05;;;;;;;;;36.50;32.50;;;;;10.71;72.60;103470.66;5023032;28;45426;-56
2021/12/17 10:25:31;;;;;;;;;33.00;28.75;;;;;10.71;72.08;103463.63;5022818;28;45309;-55
2021/12/17 10:28:04;;;;;;;;;52.75;36.50;;;;;10.71;72.84;103458.34;5023247;28;45317;-55
2021/12/17 10:30:33;;;;;;;;;29.25;25.75;;;;;10.73;72.39;103453.91;5022548;28;45229;-55
2021/12/17 10:33:02;;;;;;;;;51.75;38.75;;;;;10.76;72.51;103453.03;5022588;28;45366;-55
2021/12/17 10:35:31;;;;;;;;;38.25;29.25;;;;;10.81;72.51;103451.16;5022492;28;45351;-56
2021/12/17 10:38:04;;;;;;;;;50.25;35.50;;;;;10.86;72.41;103450.19;5022739;28;45307;-55
2021/12/17 10:40:56;;;;;;;;;46.25;37.50;;;;;10.93;71.91;103442.19;5022360;28;46241;-56
2021/12/17 10:43:35;;;;;;;;;37.00;32.25;;;;;10.99;72.05;103442.09;5022481;28;45553;-55
2021/12/17 10:46:20;;;;;;;;;34.00;28.00;;;;;11.01;71.38;103435.88;5022523;28;45226;-54
2021/12/17 10:49:02;;;;;;;;;32.50;30.50;;;;;11.05;71.39;103434.03;5022450;28;45448;-55
2021/12/17 10:54:03;;;;;;;;;45.00;34.50;;;;;11.11;71.27;103434.78;5021687;28;45462;-54
2021/12/17 10:56:35;;;;;;;;;38.25;30.25;;;;;11.17;71.17;103431.19;5022189;28;45349;-55
2021/12/17 10:59:03;;;;;;;;;48.50;34.75;;;;;11.23;71.10;103430.22;5022280;28;45399;-56
2021/12/17 11:01:31;;;;;;;;;47.50;35.00;;;;;11.25;71.26;103417.84;5022270;28;45403;-56
2021/12/17 11:04:28;;;;;;;;;35.75;29.75;;;;;11.28;70.75;103413.38;5022243;28;45381;-56
2021/12/17 11:07:03;;;;;;;;;35.75;30.25;;;;;11.30;70.68;103413.38;5021416;28;45513;-55
2021/12/17 11:09:34;;;;;;;;;36.00;31.00;;;;;11.31;70.61;103397.50;5022356;28;45716;-56
2021/12/17 11:12:06;;;;;;;;;35.75;32.00;;;;;11.35;70.37;103396.50;5022095;28;46337;-55
2021/12/17 11:14:32;;;;;;;;;48.50;36.75;;;;;11.40;70.28;103385.88;5021862;28;45237;-56
2021/12/17 11:16:57;;;;;;;;;48.25;37.25;;;;;11.43;70.31;103385.81;5022151;28;45411;-56
2021/12/17 11:19:23;;;;;;;;;38.50;34.00;;;;;11.46;70.23;103383.13;5021934;28;45201;-56
2021/12/17 11:21:49;;;;;;;;;43.25;34.75;;;;;11.50;70.03;103384.78;5021468;28;45902;-55
2021/12/17 11:24:15;;;;;;;;;35.75;26.75;;;;;11.55;69.85;103388.22;5021923;28;45448;-55
2021/12/17 11:26:41;;;;;;;;;40.00;33.00;;;;;11.57;69.95;103398.72;5021878;28;45291;-55
2021/12/17 11:29:07;;;;;;;;;43.25;30.50;;;;;11.58;69.59;103384.63;5021732;28;45344;-54
2021/12/17 11:31:33;;;;;;;;;40.00;30.75;;;;;11.62;69.85;103391.59;5021525;28;45422;-55
2021/12/17 11:34:03;;;;;;;;;28.50;26.50;;;;;11.62;69.06;103375.75;5021501;28;45355;-54
2021/12/17 11:36:29;;;;;;;;;36.00;31.25;;;;;11.63;69.25;103369.56;5021781;28;45519;-56
2021/12/17 11:39:20;;;;;;;;;42.00;30.50;;;;;11.67;68.95;103371.22;5021970;28;45238;-54
2021/12/17 11:41:57;;;;;;;;;36.75;32.50;;;;;11.75;68.77;103364.00;5021672;28;45363;-56
2021/12/17 11:44:29;;;;;;;;;33.25;30.25;;;;;11.79;68.38;103368.31;5021584;28;45262;-56
2021/12/17 11:47:02;;;;;;;;;36.00;32.25;;;;;11.79;67.93;103360.41;5021555;28;45307;-55
2021/12/17 11:49:34;;;;;;;;;32.25;29.25;;;;;11.80;67.66;103358.63;5021614;28;45413;-54
2021/12/17 11:52:00;;;;;;;;;39.25;31.25;;;;;11.82;67.66;103354.19;5021435;28;45452;-54
2021/12/17 11:54:34;;;;;;;;;30.75;28.25;;;;;11.85;67.43;103351.47;5020975;28;45525;-54
2021/12/17 11:57:10;;;;;;;;;31.50;29.75;;;;;11.87;67.08;103349.69;5021426;28;45288;-54
2021/12/17 11:59:43;;;;;;;;;32.75;26.25;;;;;11.88;66.66;103351.44;5021339;28;45574;-56
2021/12/17 12:02:20;;;;;;;;;36.50;29.75;;;;;11.87;66.51;103347.91;5021451;28;45275;-55
2021/12/17 12:04:49;;;;;;;;;30.75;28.75;;;;;11.88;66.40;103352.28;5021264;28;45336;-54
2021/12/17 12:07:31;;;;;;;;;35.25;29.25;;;;;11.93;65.95;103342.50;5021205;28;45313;-56
2021/12/17 12:10:26;;;;;;;;;24.75;24.50;;;;;11.96;65.84;103342.41;5024025;28;45565;-52
2021/12/17 12:12:52;;;;;;;;;27.75;27.75;;;;;12.02;65.68;103338.78;5017343;28;46110;-55
2021/12/17 12:15:17;;;;;;;;;45.25;30.50;;;;;12.05;65.47;103336.06;5029013;28;45325;-55
2021/12/17 12:17:58;;;;;;;;;38.75;31.00;;;;;12.07;65.38;103336.00;5027094;28;45434;-55
2021/12/17 12:20:45;;;;;;;;;35.00;27.25;;;;;12.07;65.29;103334.22;5028161;28;45511;-55
2021/12/17 12:23:29;;;;;;;;;34.00;31.00;;;;;12.05;65.42;103333.41;5030415;28;46181;-55
2021/12/17 12:26:01;;;;;;;;;35.50;27.50;;;;;11.99;65.06;103336.19;5027961;28;45447;-54
2021/12/17 12:28:41;;;;;;;;;29.75;28.50;;;;;11.91;64.67;103327.56;5029810;28;45435;-58
2021/12/17 12:31:07;;;;;;;;;28.75;24.00;;;;;11.88;64.75;103339.09;5028259;28;45324;-51
2021/12/17 12:33:32;;;;;;;;;26.50;25.00;;;;;11.86;65.00;103332.13;5030627;28;45667;-57
2021/12/17 12:35:58;;;;;;;;;30.50;26.75;;;;;11.88;65.10;103323.25;5030661;28;45356;-52
2021/12/17 12:38:30;;;;;;;;;36.00;28.75;;;;;11.93;65.09;103325.78;5029404;28;46465;-52
2021/12/17 12:40:57;;;;;;;;;33.75;27.25;;;;;11.94;65.01;103320.47;5027371;28;45487;-58
2021/12/17 12:43:33;;;;;;;;;27.50;24.00;;;;;11.93;64.40;103321.38;5028653;28;45381;-54
2021/12/17 12:45:59;;;;;;;;;30.50;27.25;;;;;11.88;64.52;103312.69;5028332;28;45467;-56
2021/12/17 12:48:38;;;;;;;;;31.50;26.00;;;;;11.86;64.36;103317.13;5031136;28;45492;-58
2021/12/17 12:51:21;;;;;;;;;32.00;27.25;;;;;11.86;64.55;103316.28;5028135;28;45220;-56
2021/12/17 12:54:05;;;;;;;;;32.25;27.25;;;;;11.87;64.38;103307.44;5026979;28;46307;-55
2021/12/17 12:56:32;;;;;;;;;26.75;24.00;;;;;11.92;64.46;103305.53;5029259;28;45184;-58
2021/12/17 12:58:57;;;;;;;;;32.75;28.25;;;;;11.99;64.63;103302.72;5029791;28;45419;-54
2021/12/17 13:01:23;;;;;;;;;33.25;24.00;;;;;12.07;64.30;103305.16;5029561;28;45242;-56
2021/12/17 13:03:49;;;;;;;;;29.00;25.25;;;;;12.07;63.92;103299.88;5028980;28;45218;-55
2021/12/17 13:06:17;;;;;;;;;25.50;24.00;;;;;12.07;64.17;103310.44;5024886;28;45589;-58
2021/12/17 13:08:51;;;;;;;;;29.25;24.50;;;;;11.95;63.66;103303.72;5030401;28;45291;-57
2021/12/17 13:11:18;;;;;;;;;28.75;23.75;;;;;11.79;64.05;103298.78;5027638;28;45422;-56
2021/12/17 13:13:50;;;;;;;;;29.75;23.50;;;;;11.72;64.49;103303.34;5028974;28;46098;-52
2021/12/17 13:16:34;;;;;;;;;24.25;19.25;;;;;11.69;64.09;103300.75;5028006;28;45328;-56
2021/12/17 13:21:58;;;;;;;;;29.25;19.50;;;;;11.69;64.85;103292.84;5028930;28;45584;-56
2021/12/17 13:24:30;;;;;;;;;28.75;22.75;;;;;11.77;64.78;103293.56;5029094;28;45494;-54
2021/12/17 13:27:10;;;;;;;;;26.75;21.75;;;;;11.83;64.57;103289.91;5013680;28;45292;-58
2021/12/17 13:29:38;;;;;;;;;25.50;21.50;;;;;11.84;64.43;103292.50;5022991;28;45264;-58
2021/12/17 13:32:07;;;;;;;;;29.75;23.75;;;;;11.83;64.10;103298.69;5023558;28;45599;-55
2021/12/17 13:35:00;;;;;;;;;28.75;20.75;;;;;11.77;64.18;103296.19;5023819;28;46644;-58
2021/12/17 13:37:32;;;;;;;;;31.75;27.75;;;;;11.68;64.36;103291.97;5009967;28;45542;-57
2021/12/17 13:40:10;;;;;;;;;22.50;20.25;;;;;11.66;64.69;103306.13;5023711;28;45272;-59
2021/12/17 13:42:42;;;;;;;;;32.50;24.50;;;;;11.57;64.14;103307.19;5023999;28;45523;-56
2021/12/17 13:45:13;;;;;;;;;23.00;19.75;;;;;11.43;64.53;103294.28;5023162;28;46275;-56
2021/12/17 13:47:55;;;;;;;;;29.25;21.25;;;;;11.34;64.46;103283.94;5023158;28;45384;-55
2021/12/17 13:50:32;;;;;;;;;35.25;30.25;;;;;11.26;64.97;103285.88;5020309;28;45347;-55
2021/12/17 13:53:00;;;;;;;;;22.75;17.00;;;;;11.17;64.88;103283.44;5003078;28;45499;-56
2021/12/17 13:55:27;;;;;;;;;26.50;19.25;;;;;11.09;65.08;103278.31;5008440;28;45241;-54
2021/12/17 13:57:54;;;;;;;;;32.75;26.00;;;;;11.09;65.39;103275.69;5024315;28;45303;-56
2021/12/17 14:00:24;;;;;;;;;23.50;22.50;;;;;11.13;65.60;103279.13;5030247;28;45348;-55
2021/12/17 14:02:53;;;;;;;;;29.25;24.00;;;;;11.13;65.79;103269.44;5007612;28;45333;-53
2021/12/17 14:05:28;;;;;;;;;26.75;22.00;;;;;11.16;65.41;103276.44;5003256;28;46413;-52
2021/12/17 14:07:59;;;;;;;;;28.00;25.00;;;;;11.15;65.95;103280.84;5003061;28;45295;-54
2021/12/17 14:10:33;;;;;;;;;25.75;20.00;;;;;11.14;66.28;103278.25;5011700;28;45447;-55
2021/12/17 14:13:00;;;;;;;;;28.75;22.00;;;;;11.14;65.90;103275.59;5023355;28;45455;-56
2021/12/17 14:15:28;;;;;;;;;33.50;22.25;;;;;11.17;66.47;103272.91;5022765;28;46111;-55
2021/12/17 14:18:02;;;;;;;;;27.50;23.75;;;;;11.16;66.48;103274.66;5022738;28;45538;-56
2021/12/17 14:20:36;;;;;;;;;25.50;24.00;;;;;11.18;66.59;103274.63;5022893;28;45474;-56
2021/12/17 14:23:15;;;;;;;;;23.25;20.50;;;;;11.15;66.43;103261.50;5023177;28;45253;-54
2021/12/17 14:25:50;;;;;;;;;26.75;20.25;;;;;11.15;66.37;103266.78;5022880;28;46246;-51
2021/12/17 14:28:23;;;;;;;;;27.75;22.25;;;;;11.15;66.24;103261.50;5022707;28;45337;-56
2021/12/17 14:31:14;;;;;;;;;22.50;19.25;;;;;11.14;66.30;103260.66;5022992;28;45432;-53
2021/12/17 14:33:52;;;;;;;;;24.75;22.50;;;;;11.12;66.53;103258.91;5022687;28;45305;-56